Terminal Aerodrome Forecast
Issued by NWS

Home | Current Version | Previous Version | Text Only | Print | Product List | Glossary On
Versions: 1 2 3 4 5 6 7 8 9 10 11 12 13 14 15 16
699
FTUS45 KRIW 051235 AAA
TAFCPR
TAF AMD
KCPR 051235Z 0513/0612 02010G16KT 3SM -SN SCT015 BKN025
      TEMPO 0513/0515 3/4SM -SN BKN008
     FM051800 29014G20KT P6SM SCT020 BKN035
     FM060300 26008KT P6SM SCT040=

USA.gov is the U.S. government's official web portal to all federal, state and local government web resources and services.